Walkerville, Michigan
Current Conditions -  °F | °C
As of 1:50 PM on Thursday 30 Oct 2014 (Local Time) from KFFX Reporting Station
Overcast Overcast  
Wind Chill: 45°   Ceiling: 3900
Heat Index: 49°   Visibility: 10mi
Dew Point: 33°   Wind: 7mph
Humidity: 54%   Direction: 250°WSW
Pressure: 30.06"   Gusts: NA
Location:  43.71°N, 86.12°W
Report Text: KFFX 301750Z AUTO 25006KT 10SM OVC039 09/00 A3006 RMK AO2 T00920003
Loading
Personal Weather Stations






























Interactive Weather Map
Tropical Storm Tracking
New forecast layout! Learn more

10-Day Weather Forecast

Advertisements
Track Severe Weather on mobile